createdAt,value
2022-08-23T00:01:24.398Z,6.82
2022-08-23T00:04:14.611Z,6.40
2022-08-23T00:07:07.347Z,6.40
2022-08-23T00:09:53.185Z,7.18
2022-08-23T00:12:40.147Z,7.25
2022-08-23T00:15:26.353Z,7.15
2022-08-23T00:18:14.424Z,7.60
2022-08-23T00:21:00.541Z,7.03
2022-08-23T00:23:46.234Z,7.30
2022-08-23T00:27:02.355Z,8.05
2022-08-23T00:29:54.241Z,7.65
2022-08-23T00:32:41.484Z,8.13
2022-08-23T00:35:27.930Z,7.35
2022-08-23T00:38:32.438Z,7.50
2022-08-23T00:41:19.735Z,8.32
2022-08-23T00:44:24.543Z,8.25
2022-08-23T00:47:30.736Z,8.40
2022-08-23T00:50:23.453Z,9.02
2022-08-23T00:53:26.138Z,9.90
2022-08-23T00:56:13.785Z,10.00
2022-08-23T00:59:00.285Z,10.15
2022-08-23T01:01:46.108Z,10.13
2022-08-23T01:04:37.137Z,10.95
2022-08-23T01:07:48.718Z,10.73
2022-08-23T01:10:44.644Z,10.00
2022-08-23T01:14:03.857Z,10.38
2022-08-23T01:16:54.485Z,10.40
2022-08-23T01:19:51.901Z,10.65
2022-08-23T01:22:43.421Z,10.95
2022-08-23T01:25:31.868Z,10.85
2022-08-23T01:28:18.338Z,10.32
2022-08-23T01:31:04.189Z,11.32
2022-08-23T01:33:59.662Z,11.07
2022-08-23T01:39:32.244Z,9.98
2022-08-23T01:42:18.928Z,10.40
2022-08-23T01:45:05.886Z,10.57
2022-08-23T01:47:52.607Z,10.55
2022-08-23T01:50:39.172Z,10.55
2022-08-23T01:53:25.361Z,10.93
2022-08-23T01:56:11.256Z,11.25
2022-08-23T01:58:58.660Z,10.55
2022-08-23T02:01:51.424Z,11.00
2022-08-23T02:04:37.715Z,11.23
2022-08-23T02:07:27.554Z,11.30
2022-08-23T02:10:15.562Z,10.98
2022-08-23T02:13:01.839Z,11.60
2022-08-23T02:15:51.591Z,10.82
2022-08-23T02:18:41.356Z,10.80
2022-08-23T02:21:27.437Z,10.77
2022-08-23T02:24:16.629Z,10.90
2022-08-23T02:27:05.157Z,10.98
2022-08-23T02:29:54.935Z,11.65
2022-08-23T02:32:42.348Z,11.13
2022-08-23T02:35:29.553Z,10.88
2022-08-23T02:38:17.344Z,11.07
2022-08-23T02:41:03.590Z,10.90
2022-08-23T02:43:53.710Z,11.10
2022-08-23T02:46:42.198Z,10.93
2022-08-23T02:49:29.566Z,11.93
2022-08-23T02:52:15.612Z,12.10
2022-08-23T02:55:02.415Z,11.73
2022-08-23T02:57:48.832Z,11.38
2022-08-23T03:01:57.327Z,12.32
2022-08-23T03:04:47.647Z,11.73
2022-08-23T03:07:33.492Z,11.30
2022-08-23T03:10:20.675Z,11.57
2022-08-23T03:13:12.828Z,12.02
2022-08-23T03:15:59.270Z,12.20
2022-08-23T03:18:45.994Z,12.25
2022-08-23T03:21:32.548Z,12.40
2022-08-23T03:24:19.289Z,11.98
2022-08-23T03:27:05.573Z,12.43
2022-08-23T03:29:51.624Z,13.25
2022-08-23T03:32:37.678Z,12.98
2022-08-23T03:35:23.642Z,13.55
2022-08-23T03:38:10.675Z,13.63
2022-08-23T03:40:57.240Z,13.25
2022-08-23T03:43:44.118Z,14.60
2022-08-23T03:46:34.033Z,14.20
2022-08-23T03:49:21.044Z,13.02
2022-08-23T03:52:12.647Z,14.07
2022-08-23T03:54:59.202Z,13.77
2022-08-23T03:57:49.130Z,15.07
2022-08-23T04:00:38.217Z,14.80
2022-08-23T04:03:24.589Z,14.50
2022-08-23T04:06:19.816Z,14.68
2022-08-23T04:09:06.908Z,14.13
2022-08-23T04:11:53.393Z,15.18
2022-08-23T04:14:40.788Z,14.65
2022-08-23T04:17:27.060Z,14.65
2022-08-23T04:20:13.455Z,15.43
2022-08-23T04:23:19.889Z,15.20
2022-08-23T04:26:11.707Z,14.60
2022-08-23T04:29:00.158Z,15.23
2022-08-23T04:31:46.841Z,15.35
2022-08-23T04:34:36.358Z,15.82
2022-08-23T04:37:23.457Z,16.00
2022-08-23T04:40:31.411Z,16.40
2022-08-23T04:43:18.638Z,16.02
2022-08-23T04:46:05.653Z,16.50
2022-08-23T04:48:54.353Z,16.63
2022-08-23T04:51:40.633Z,17.50
2022-08-23T04:54:27.067Z,18.70
2022-08-23T04:57:42.607Z,16.90
2022-08-23T05:00:30.835Z,17.83
2022-08-23T05:03:17.404Z,18.02
2022-08-23T05:06:05.202Z,18.20
2022-08-23T05:08:58.343Z,16.98
2022-08-23T05:11:44.565Z,18.42
2022-08-23T05:14:31.628Z,17.60
2022-08-23T05:17:20.592Z,18.92
2022-08-23T05:20:08.413Z,18.42
2022-08-23T05:22:55.537Z,18.88
2022-08-23T05:26:04.112Z,18.50
2022-08-23T05:28:58.760Z,17.33
2022-08-23T05:31:50.578Z,16.23
2022-08-23T05:34:39.177Z,17.52
2022-08-23T05:37:29.435Z,18.30
2022-08-23T05:40:15.710Z,19.08
2022-08-23T05:43:15.728Z,17.15
2022-08-23T05:46:12.192Z,17.88
2022-08-23T05:49:06.011Z,17.52
2022-08-23T05:51:52.221Z,16.95
2022-08-23T05:54:41.133Z,15.60
2022-08-23T05:57:47.544Z,14.95
2022-08-23T06:00:40.643Z,14.73
2022-08-23T06:03:29.347Z,15.10
2022-08-23T06:06:16.271Z,15.13
2022-08-23T06:09:04.047Z,14.70
2022-08-23T06:11:50.663Z,13.98
2022-08-23T06:14:38.648Z,13.50
2022-08-23T06:17:29.043Z,14.30
2022-08-23T06:20:18.208Z,13.10
2022-08-23T06:23:21.954Z,14.18
2022-08-23T06:26:33.723Z,14.45
2022-08-23T06:29:21.636Z,12.80
2022-08-23T06:32:16.950Z,14.75
2022-08-23T06:35:38.659Z,14.00
2022-08-23T06:38:51.014Z,12.40
2022-08-23T06:42:10.101Z,12.73
2022-08-23T06:45:05.492Z,12.13
2022-08-23T06:47:57.661Z,12.68
2022-08-23T06:50:43.743Z,11.93
2022-08-23T06:54:03.058Z,12.13
2022-08-23T06:57:08.239Z,13.30
2022-08-23T07:00:22.133Z,11.77
2022-08-23T07:03:27.367Z,12.07
2022-08-23T07:06:37.168Z,12.60
2022-08-23T07:09:23.680Z,13.18
2022-08-23T07:12:11.581Z,13.52
2022-08-23T07:15:00.604Z,14.82
2022-08-23T07:17:46.539Z,14.00
2022-08-23T07:20:32.583Z,13.75
2022-08-23T07:23:18.391Z,15.32
2022-08-23T07:26:08.503Z,13.73
2022-08-23T07:28:54.632Z,15.48
2022-08-23T07:31:47.025Z,14.63
2022-08-23T07:34:34.400Z,14.52
2022-08-23T07:37:21.045Z,14.65
2022-08-23T07:40:08.522Z,13.85
2022-08-23T07:42:57.893Z,13.30
2022-08-23T07:45:44.649Z,13.63
2022-08-23T07:48:52.501Z,13.65
2022-08-23T07:51:45.526Z,13.05
2022-08-23T07:54:32.001Z,13.02
2022-08-23T07:57:24.851Z,12.75
2022-08-23T08:00:36.984Z,13.30
2022-08-23T08:03:53.475Z,13.05
2022-08-23T08:07:00.189Z,12.30
2022-08-23T08:09:54.991Z,12.32
2022-08-23T08:12:44.239Z,11.75
2022-08-23T08:15:42.187Z,11.45
2022-08-23T08:18:32.433Z,11.50
2022-08-23T08:21:39.610Z,11.93
2022-08-23T08:24:46.482Z,11.50
2022-08-23T08:27:33.385Z,12.55
2022-08-23T08:30:22.049Z,12.48
2022-08-23T08:33:09.054Z,11.75
2022-08-23T08:35:57.758Z,11.35
2022-08-23T08:38:50.361Z,10.73
2022-08-23T08:41:44.279Z,9.95
2022-08-23T08:44:55.867Z,10.43
2022-08-23T08:48:04.053Z,10.38
2022-08-23T08:51:01.758Z,10.25
2022-08-23T08:53:49.036Z,9.38
2022-08-23T08:56:52.000Z,9.30
2022-08-23T09:00:13.803Z,8.88
2022-08-23T09:03:06.418Z,9.00
2022-08-23T09:06:00.671Z,10.32
2022-08-23T09:09:13.459Z,9.40
2022-08-23T09:12:19.067Z,9.27
2022-08-23T09:15:13.104Z,8.63
2022-08-23T09:18:13.673Z,8.93
2022-08-23T09:20:59.798Z,8.95
2022-08-23T09:23:47.902Z,8.75
2022-08-23T09:26:54.749Z,8.50
2022-08-23T09:29:59.232Z,9.38
2022-08-23T09:32:48.742Z,8.40
2022-08-23T09:35:34.840Z,8.20
2022-08-23T09:38:27.064Z,8.88
2022-08-23T09:41:24.011Z,8.37
2022-08-23T09:44:16.496Z,8.30
2022-08-23T09:47:12.283Z,8.23
2022-08-23T09:50:18.347Z,7.50
2022-08-23T09:53:10.966Z,8.02
2022-08-23T09:55:59.078Z,7.30
2022-08-23T09:58:47.166Z,7.43
2022-08-23T10:01:40.320Z,7.63
2022-08-23T10:04:37.537Z,7.72
2022-08-23T10:08:00.669Z,8.65
2022-08-23T10:13:43.219Z,8.13
2022-08-23T10:16:41.547Z,8.93
2022-08-23T10:19:47.884Z,9.48
2022-08-23T10:22:53.543Z,9.30
2022-08-23T10:25:54.923Z,9.45
2022-08-23T10:29:09.783Z,9.50
2022-08-23T10:32:40.905Z,10.63
2022-08-23T10:35:57.510Z,10.10
2022-08-23T10:38:47.140Z,10.00
2022-08-23T10:41:54.899Z,9.50
2022-08-23T10:44:51.025Z,8.75
2022-08-23T10:47:51.702Z,9.68
2022-08-23T10:50:55.797Z,8.15
2022-08-23T10:54:06.278Z,7.35
2022-08-23T10:56:53.018Z,7.35
2022-08-23T10:59:39.370Z,7.05
2022-08-23T11:02:56.283Z,7.55
2022-08-23T11:06:29.306Z,7.65
2022-08-23T11:09:19.194Z,6.57
2022-08-23T11:12:11.824Z,7.03
2022-08-23T11:15:05.479Z,7.18
2022-08-23T11:17:56.324Z,6.40
2022-08-23T11:20:49.551Z,6.63
2022-08-23T11:23:55.963Z,6.85
2022-08-23T11:26:45.443Z,6.47
2022-08-23T11:29:33.226Z,7.15
2022-08-23T11:32:41.296Z,5.70
2022-08-23T11:35:43.265Z,6.07
2022-08-23T11:38:50.021Z,6.00
2022-08-23T11:41:57.178Z,5.78
2022-08-23T11:44:49.164Z,5.93
2022-08-23T11:47:44.536Z,6.18
2022-08-23T11:50:57.726Z,5.30
2022-08-23T11:53:53.185Z,5.10
2022-08-23T11:57:00.462Z,5.10
2022-08-23T13:10:46.230Z,4.97
2022-08-23T13:13:33.023Z,4.85
2022-08-23T13:16:42.963Z,4.60
2022-08-23T13:19:31.164Z,4.28
2022-08-23T13:22:24.068Z,5.00
2022-08-23T13:25:32.164Z,4.23
2022-08-23T13:28:25.548Z,4.22
2022-08-23T13:31:11.457Z,4.75
2022-08-23T13:33:57.640Z,4.00
2022-08-23T13:36:44.423Z,4.40
2022-08-23T13:39:30.777Z,4.40
2022-08-23T13:42:51.158Z,3.90
2022-08-23T13:46:37.821Z,9.68
2022-08-23T13:49:29.336Z,4.90
2022-08-23T13:55:21.680Z,5.63
2022-08-23T13:58:10.763Z,5.00
2022-08-23T14:00:58.858Z,4.95
2022-08-23T14:03:46.800Z,4.90
2022-08-23T14:06:32.513Z,5.45
2022-08-23T14:09:20.471Z,4.90
2022-08-23T14:12:15.562Z,4.63
2022-08-23T14:15:03.879Z,4.72
2022-08-23T14:17:52.689Z,5.05
2022-08-23T14:20:46.470Z,4.00
2022-08-23T14:23:34.574Z,3.42
2022-08-23T14:26:21.928Z,6.13
2022-08-23T14:29:08.343Z,5.68
2022-08-23T14:32:02.289Z,5.13
2022-08-23T14:34:48.490Z,5.35
2022-08-23T14:40:40.894Z,6.88
2022-08-23T14:43:27.648Z,25.95
2022-08-23T14:46:13.725Z,10.60
2022-08-23T14:49:00.031Z,8.27
2022-08-23T14:51:47.492Z,6.65
2022-08-23T14:54:36.129Z,5.72
2022-08-23T14:57:22.012Z,5.28
2022-08-23T15:00:13.774Z,5.15
2022-08-23T15:03:00.220Z,5.60
2022-08-23T15:05:46.432Z,5.32
2022-08-23T15:08:33.434Z,5.38
2022-08-23T15:14:26.323Z,6.45
2022-08-23T15:17:12.074Z,5.28
2022-08-23T15:19:57.892Z,4.80
2022-08-23T15:22:44.640Z,4.32
2022-08-23T15:25:33.803Z,3.88
2022-08-23T15:28:21.064Z,4.30
2022-08-23T15:31:07.399Z,3.92
2022-08-23T15:33:53.477Z,3.42
2022-08-23T15:36:41.924Z,3.50
2022-08-23T15:39:28.123Z,3.40
2022-08-23T15:42:18.539Z,3.33
2022-08-23T15:45:09.227Z,2.90
2022-08-23T15:47:56.522Z,3.15
2022-08-23T15:50:45.360Z,3.00
2022-08-23T15:53:31.813Z,3.10
2022-08-23T15:56:28.207Z,2.80
2022-08-23T15:59:16.686Z,2.60
2022-08-23T16:02:03.803Z,2.78
2022-08-23T16:04:50.084Z,3.20
2022-08-23T16:07:37.128Z,6.20
2022-08-23T16:10:24.089Z,4.40
2022-08-23T16:13:10.793Z,7.47
2022-08-23T16:15:57.650Z,11.88
2022-08-23T16:18:44.195Z,9.27
2022-08-23T16:21:31.438Z,12.82
2022-08-23T16:24:17.218Z,4.22
2022-08-23T16:27:07.605Z,3.90
2022-08-23T16:29:53.559Z,4.50
2022-08-23T16:32:39.368Z,3.30
2022-08-23T16:35:25.378Z,4.00
2022-08-23T16:38:11.284Z,3.55
2022-08-23T16:40:57.413Z,3.80
2022-08-23T16:43:43.529Z,3.65
2022-08-23T16:46:29.482Z,4.10
2022-08-23T16:49:18.679Z,3.33
2022-08-23T16:52:04.715Z,3.90
2022-08-23T16:54:50.813Z,3.88
2022-08-23T16:57:37.090Z,3.60
2022-08-23T17:00:23.082Z,3.80
2022-08-23T17:03:09.950Z,3.53
2022-08-23T17:05:55.989Z,4.38
2022-08-23T17:08:45.141Z,3.88
2022-08-23T17:11:32.959Z,4.22
2022-08-23T17:14:19.962Z,3.70
2022-08-23T17:17:06.171Z,3.05
2022-08-23T17:19:52.366Z,3.15
2022-08-23T17:22:38.419Z,3.60
2022-08-23T17:25:24.982Z,9.75
2022-08-23T17:28:11.096Z,4.32
2022-08-23T17:30:56.918Z,3.30
2022-08-23T17:33:43.837Z,3.90
2022-08-23T17:37:06.920Z,4.00
2022-08-23T17:39:53.329Z,3.70
2022-08-23T17:42:39.426Z,3.90
2022-08-23T17:45:27.189Z,4.20
2022-08-23T17:48:14.509Z,3.70
2022-08-23T17:51:01.572Z,3.60
2022-08-23T17:53:47.529Z,3.47
2022-08-23T17:56:33.880Z,3.83
2022-08-23T17:59:20.363Z,3.85
2022-08-23T18:02:07.161Z,3.42
2022-08-23T18:04:53.040Z,3.55
2022-08-23T18:07:40.427Z,3.60
2022-08-23T18:10:26.967Z,4.00
2022-08-23T18:13:12.799Z,3.78
2022-08-23T18:15:58.790Z,3.25
2022-08-23T18:18:44.842Z,3.65
2022-08-23T18:21:30.791Z,3.08
2022-08-23T18:24:16.991Z,3.25
2022-08-23T18:27:23.565Z,3.22
2022-08-23T18:30:11.176Z,3.28
2022-08-23T18:32:59.595Z,3.35
2022-08-23T18:35:46.671Z,2.92
2022-08-23T18:38:32.567Z,4.25
2022-08-23T18:41:18.521Z,3.25
2022-08-23T18:44:05.948Z,23.05
2022-08-23T18:46:52.089Z,19.67
2022-08-23T18:49:38.902Z,17.88
2022-08-23T18:52:27.159Z,5.30
2022-08-23T18:55:17.822Z,4.57
2022-08-23T18:58:04.665Z,6.72
2022-08-23T19:00:51.010Z,6.03
2022-08-23T19:03:37.002Z,4.00
2022-08-23T19:06:23.624Z,4.00
2022-08-23T19:09:12.796Z,3.47
2022-08-23T19:12:00.886Z,2.90
2022-08-23T19:14:47.102Z,3.40
2022-08-23T19:17:33.285Z,2.85
2022-08-23T19:20:19.789Z,3.17
2022-08-23T19:23:06.114Z,3.30
2022-08-23T19:25:52.230Z,3.70
2022-08-23T19:28:39.820Z,3.10
2022-08-23T19:31:28.217Z,3.17
2022-08-23T19:34:18.883Z,3.10
2022-08-23T19:37:05.185Z,4.93
2022-08-23T19:39:56.684Z,4.80
2022-08-23T19:42:42.558Z,3.38
2022-08-23T19:45:32.179Z,3.38
2022-08-23T19:48:20.022Z,3.58
2022-08-23T19:51:12.458Z,3.33
2022-08-23T19:54:04.619Z,3.67
2022-08-23T19:56:57.591Z,3.40
2022-08-23T20:02:30.662Z,3.67
2022-08-23T20:05:17.706Z,3.45
2022-08-23T20:08:04.311Z,3.75
2022-08-23T20:10:50.219Z,3.63
2022-08-23T20:13:36.360Z,3.60
2022-08-23T20:16:24.019Z,4.30
2022-08-23T20:19:11.239Z,3.72
2022-08-23T20:22:19.421Z,3.97
2022-08-23T20:25:07.428Z,3.58
2022-08-23T20:27:53.865Z,4.00
2022-08-23T20:30:40.271Z,3.85
2022-08-23T20:33:26.157Z,4.38
2022-08-23T20:36:12.483Z,4.15
2022-08-23T20:39:00.191Z,4.15
2022-08-23T20:41:46.435Z,3.83
2022-08-23T20:44:33.382Z,4.50
2022-08-23T20:47:19.298Z,3.97
2022-08-23T20:50:06.181Z,4.03
2022-08-23T20:52:52.379Z,5.00
2022-08-23T20:55:41.680Z,4.65
2022-08-23T20:58:28.138Z,4.28
2022-08-23T21:01:14.512Z,4.63
2022-08-23T21:04:00.966Z,4.68
2022-08-23T21:06:49.960Z,5.00
2022-08-23T21:09:37.051Z,5.45
2022-08-23T21:12:22.998Z,4.60
2022-08-23T21:15:11.064Z,4.18
2022-08-23T21:17:57.129Z,4.70
2022-08-23T21:20:43.191Z,4.88
2022-08-23T21:23:29.308Z,4.63
2022-08-23T21:26:16.031Z,4.72
2022-08-23T21:29:02.315Z,4.85
2022-08-23T21:31:48.497Z,5.40
2022-08-23T21:34:34.677Z,4.30
2022-08-23T21:37:20.392Z,5.32
2022-08-23T21:40:06.974Z,4.93
2022-08-23T21:42:52.825Z,5.18
2022-08-23T21:45:39.586Z,4.65
2022-08-23T21:48:27.838Z,5.20
2022-08-23T21:51:13.813Z,5.25
2022-08-23T21:53:59.682Z,4.88
2022-08-23T21:56:46.274Z,5.80
2022-08-23T21:59:32.052Z,5.30
2022-08-23T22:02:19.239Z,5.10
2022-08-23T22:05:07.171Z,5.63
2022-08-23T22:07:53.569Z,6.05
2022-08-23T22:16:04.013Z,6.28
2022-08-23T22:46:23.351Z,5.97
2022-08-23T22:49:09.451Z,6.38
2022-08-23T22:51:57.462Z,6.55
2022-08-23T22:54:43.616Z,6.55
2022-08-23T22:57:30.678Z,5.90
2022-08-23T23:00:16.739Z,6.65
2022-08-23T23:03:02.709Z,6.85
2022-08-23T23:05:50.209Z,6.80
2022-08-23T23:08:37.063Z,7.20
2022-08-23T23:11:23.801Z,7.07
2022-08-23T23:14:10.550Z,6.88
2022-08-23T23:16:56.606Z,7.70
2022-08-23T23:20:04.049Z,6.55
2022-08-23T23:22:51.901Z,7.00
2022-08-23T23:25:38.115Z,6.93
2022-08-23T23:28:24.306Z,7.00
2022-08-23T23:31:10.048Z,6.80
2022-08-23T23:33:56.155Z,7.95
2022-08-23T23:36:41.996Z,7.25
2022-08-23T23:39:28.332Z,7.35
2022-08-23T23:42:14.282Z,7.57
2022-08-23T23:44:59.984Z,7.85
2022-08-23T23:47:46.373Z,7.68
2022-08-23T23:50:32.538Z,7.60
2022-08-23T23:53:21.695Z,7.15
2022-08-23T23:56:14.976Z,8.30
2022-08-23T23:59:00.771Z,7.68
